createdAt,value
2017-10-05T00:01:35.636Z,3.67
2017-10-05T00:04:03.123Z,2.87
2017-10-05T00:06:30.669Z,4.20
2017-10-05T00:08:58.103Z,3.23
2017-10-05T00:11:25.527Z,3.30
2017-10-05T00:13:53.045Z,3.07
2017-10-05T00:16:20.464Z,3.00
2017-10-05T00:18:47.949Z,3.37
2017-10-05T00:21:15.382Z,3.40
2017-10-05T00:23:42.795Z,2.80
2017-10-05T00:26:10.320Z,3.23
2017-10-05T00:28:37.731Z,3.13
2017-10-05T00:31:05.160Z,3.67
2017-10-05T00:33:33.516Z,3.60
2017-10-05T00:36:00.952Z,3.67
2017-10-05T00:38:28.423Z,3.83
2017-10-05T00:40:56.020Z,3.20
2017-10-05T00:43:23.439Z,3.90
2017-10-05T00:45:50.891Z,3.67
2017-10-05T00:48:18.316Z,3.50
2017-10-05T00:50:45.808Z,3.40
2017-10-05T00:53:13.443Z,3.23
2017-10-05T00:55:40.886Z,3.20
2017-10-05T00:58:08.292Z,3.27
2017-10-05T01:00:35.948Z,3.23
2017-10-05T01:03:03.367Z,2.90
2017-10-05T01:05:30.851Z,3.60
2017-10-05T01:07:58.271Z,3.30
2017-10-05T01:10:25.763Z,3.80
2017-10-05T01:12:53.195Z,3.50
2017-10-05T01:15:20.679Z,3.60
2017-10-05T01:17:48.116Z,3.20
2017-10-05T01:20:15.587Z,3.70
2017-10-05T01:22:43.053Z,3.53
2017-10-05T01:25:10.541Z,3.93
2017-10-05T01:27:37.941Z,4.00
2017-10-05T01:30:05.359Z,3.60
2017-10-05T01:32:32.869Z,3.57
2017-10-05T01:35:00.321Z,3.53
2017-10-05T01:37:27.751Z,3.33
2017-10-05T01:39:55.239Z,3.20
2017-10-05T01:42:22.671Z,3.70
2017-10-05T01:44:50.096Z,3.20
2017-10-05T01:47:17.551Z,3.00
2017-10-05T01:49:45.064Z,4.20
2017-10-05T01:52:12.481Z,3.53
2017-10-05T01:54:39.972Z,3.13
2017-10-05T01:57:07.392Z,3.60
2017-10-05T01:59:34.887Z,4.00
2017-10-05T02:02:02.316Z,3.37
2017-10-05T02:04:29.804Z,3.60
2017-10-05T02:06:57.232Z,4.67
2017-10-05T02:09:24.708Z,4.10
2017-10-05T02:11:52.168Z,3.40
2017-10-05T02:14:19.808Z,3.90
2017-10-05T02:16:47.327Z,3.30
2017-10-05T02:19:14.764Z,4.27
2017-10-05T02:21:42.302Z,3.77
2017-10-05T02:24:09.734Z,3.80
2017-10-05T02:26:37.242Z,3.77
2017-10-05T02:29:04.864Z,3.67
2017-10-05T02:31:32.288Z,4.23
2017-10-05T02:34:00.471Z,4.03
2017-10-05T02:36:27.905Z,3.97
2017-10-05T02:38:55.416Z,4.07
2017-10-05T02:41:22.870Z,3.63
2017-10-05T02:43:50.331Z,4.70
2017-10-05T02:46:17.788Z,4.30
2017-10-05T02:48:45.205Z,3.70
2017-10-05T02:51:12.697Z,4.63
2017-10-05T02:53:40.115Z,4.00
2017-10-05T02:56:07.544Z,5.10
2017-10-05T02:58:34.960Z,4.70
2017-10-05T03:01:02.499Z,4.13
2017-10-05T03:03:29.924Z,4.27
2017-10-05T03:05:57.344Z,3.80
2017-10-05T03:08:24.899Z,3.47
2017-10-05T03:10:52.315Z,4.00
2017-10-05T03:13:19.807Z,4.30
2017-10-05T03:15:47.227Z,3.70
2017-10-05T03:18:14.717Z,3.40
2017-10-05T03:20:42.140Z,4.60
2017-10-05T03:23:09.632Z,4.20
2017-10-05T03:25:37.051Z,2.80
2017-10-05T03:28:04.479Z,3.03
2017-10-05T03:30:32.000Z,3.60
2017-10-05T03:32:59.453Z,2.87
2017-10-05T03:35:26.894Z,3.60
2017-10-05T03:37:54.368Z,3.00
2017-10-05T03:40:21.815Z,2.97
2017-10-05T03:42:49.248Z,2.57
2017-10-05T03:45:16.669Z,2.90
2017-10-05T03:47:44.105Z,2.60
2017-10-05T03:50:11.555Z,2.70
2017-10-05T03:52:38.984Z,3.60
2017-10-05T03:55:06.411Z,2.90
2017-10-05T03:57:33.926Z,2.60
2017-10-05T04:00:01.480Z,2.63
2017-10-05T04:02:29.103Z,2.60
2017-10-05T04:04:56.693Z,2.70
2017-10-05T04:07:24.119Z,3.20
2017-10-05T04:09:51.530Z,2.57
2017-10-05T04:12:18.947Z,2.80
2017-10-05T04:14:46.431Z,3.10
2017-10-05T04:17:13.872Z,2.80
2017-10-05T04:19:41.303Z,2.87
2017-10-05T04:22:08.787Z,3.87
2017-10-05T04:24:36.226Z,3.10
2017-10-05T04:27:03.736Z,2.80
2017-10-05T04:29:31.168Z,3.73
2017-10-05T04:31:58.707Z,3.30
2017-10-05T04:34:26.164Z,2.70
2017-10-05T04:36:53.596Z,2.60
2017-10-05T04:39:21.019Z,3.20
2017-10-05T04:41:48.539Z,2.60
2017-10-05T04:44:15.967Z,2.40
2017-10-05T04:46:43.392Z,2.90
2017-10-05T04:49:10.857Z,3.13
2017-10-05T04:51:38.280Z,2.30
2017-10-05T04:54:05.691Z,2.40
2017-10-05T04:56:33.117Z,2.57
2017-10-05T04:59:00.535Z,3.00
2017-10-05T05:01:27.966Z,3.30
2017-10-05T05:03:55.541Z,3.07
2017-10-05T05:06:23.099Z,3.23
2017-10-05T05:08:50.520Z,2.93
2017-10-05T05:11:17.952Z,3.00
2017-10-05T05:13:45.471Z,2.57
2017-10-05T05:16:12.895Z,3.30
2017-10-05T05:18:40.320Z,3.00
2017-10-05T05:21:07.784Z,3.57
2017-10-05T05:23:35.204Z,2.50
2017-10-05T05:26:02.635Z,2.80
2017-10-05T05:28:30.106Z,3.10
2017-10-05T05:30:57.660Z,2.90
2017-10-05T05:33:25.124Z,2.67
2017-10-05T05:35:52.567Z,3.10
2017-10-05T05:38:19.991Z,2.60
2017-10-05T05:40:47.501Z,2.73
2017-10-05T05:43:14.912Z,2.60
2017-10-05T05:45:42.439Z,2.50
2017-10-05T05:48:10.163Z,2.40
2017-10-05T05:50:37.599Z,2.63
2017-10-05T05:53:05.079Z,2.90
2017-10-05T05:55:32.499Z,2.90
2017-10-05T05:57:59.988Z,2.50
2017-10-05T06:00:27.408Z,2.63
2017-10-05T06:02:54.831Z,2.30
2017-10-05T06:05:22.264Z,2.40
2017-10-05T06:07:49.821Z,2.50
2017-10-05T06:10:17.438Z,2.20
2017-10-05T06:12:45.651Z,2.23
2017-10-05T06:15:13.058Z,2.30
2017-10-05T06:17:40.556Z,2.70
2017-10-05T06:20:07.987Z,2.33
2017-10-05T06:22:35.400Z,2.47
2017-10-05T06:25:02.845Z,4.93
2017-10-05T06:27:30.396Z,2.60
2017-10-05T06:29:58.035Z,2.40
2017-10-05T06:32:25.463Z,2.63
2017-10-05T06:34:53.659Z,2.37
2017-10-05T06:37:21.137Z,2.60
2017-10-05T06:39:48.592Z,2.40
2017-10-05T06:42:16.021Z,3.70
2017-10-05T06:44:43.454Z,2.77
2017-10-05T06:47:10.875Z,2.43
2017-10-05T06:49:38.323Z,2.70
2017-10-05T06:52:05.865Z,2.57
2017-10-05T06:54:33.299Z,2.20
2017-10-05T06:57:00.785Z,3.00
2017-10-05T06:59:28.238Z,2.70
2017-10-05T07:01:55.824Z,3.10
2017-10-05T07:04:23.462Z,2.30
2017-10-05T07:06:50.901Z,2.07
2017-10-05T07:09:18.722Z,2.30
2017-10-05T07:11:46.158Z,2.63
2017-10-05T07:14:13.760Z,3.00
2017-10-05T07:16:42.155Z,2.73
2017-10-05T07:19:09.595Z,2.20
2017-10-05T07:21:37.810Z,2.70
2017-10-05T07:24:05.224Z,2.00
2017-10-05T07:26:32.712Z,2.37
2017-10-05T07:29:00.137Z,2.20
2017-10-05T07:31:27.565Z,2.17
2017-10-05T07:33:55.086Z,2.67
2017-10-05T07:36:22.535Z,2.13
2017-10-05T07:38:50.015Z,2.13
2017-10-05T07:41:17.453Z,2.67
2017-10-05T07:43:44.868Z,1.93
2017-10-05T07:46:12.295Z,2.30
2017-10-05T07:48:39.744Z,2.07
2017-10-05T07:51:07.172Z,2.07
2017-10-05T07:53:34.736Z,1.73
2017-10-05T07:56:02.160Z,2.17
2017-10-05T07:58:29.596Z,1.80
2017-10-05T08:00:57.024Z,1.60
2017-10-05T08:03:24.443Z,2.27
2017-10-05T08:05:52.015Z,2.07
2017-10-05T08:08:19.448Z,2.23
2017-10-05T08:10:46.856Z,2.00
2017-10-05T08:13:15.255Z,2.03
2017-10-05T08:15:42.671Z,2.63
2017-10-05T08:18:10.220Z,1.90
2017-10-05T08:20:37.643Z,2.20
2017-10-05T08:23:05.080Z,2.40
2017-10-05T08:25:32.591Z,4.23
2017-10-05T08:28:00.048Z,2.30
2017-10-05T08:30:27.472Z,3.20
2017-10-05T08:32:54.903Z,1.60
2017-10-05T08:35:22.313Z,1.87
2017-10-05T08:37:49.785Z,2.03
2017-10-05T08:40:17.187Z,2.23
2017-10-05T08:42:44.611Z,1.83
2017-10-05T08:45:12.234Z,1.93
2017-10-05T08:47:39.694Z,2.23
2017-10-05T08:50:07.103Z,2.33
2017-10-05T08:52:34.599Z,2.33
2017-10-05T08:55:02.024Z,2.20
2017-10-05T08:57:29.436Z,2.10
2017-10-05T08:59:56.855Z,2.53
2017-10-05T09:02:25.144Z,2.07
2017-10-05T09:04:52.687Z,3.37
2017-10-05T09:07:20.266Z,2.43
2017-10-05T09:09:47.771Z,2.40
2017-10-05T09:12:16.883Z,2.93
2017-10-05T09:14:45.100Z,2.43
2017-10-05T09:17:13.427Z,2.00
2017-10-05T09:19:40.846Z,2.90
2017-10-05T09:22:08.379Z,3.40
2017-10-05T09:24:35.812Z,2.83
2017-10-05T09:27:03.231Z,2.23
2017-10-05T09:29:30.655Z,2.07
2017-10-05T09:31:58.079Z,2.80
2017-10-05T09:34:25.668Z,2.20
2017-10-05T09:36:53.091Z,2.43
2017-10-05T09:39:20.580Z,2.40
2017-10-05T09:41:48.041Z,2.20
2017-10-05T09:44:15.453Z,2.20
2017-10-05T09:46:42.871Z,2.47
2017-10-05T09:49:10.300Z,3.20
2017-10-05T09:51:37.869Z,2.07
2017-10-05T09:54:05.284Z,2.00
2017-10-05T09:56:32.768Z,2.57
2017-10-05T09:59:00.175Z,2.20
2017-10-05T10:01:27.591Z,2.10
2017-10-05T10:03:55.139Z,1.90
2017-10-05T10:06:23.519Z,2.43
2017-10-05T10:08:50.979Z,1.77
2017-10-05T10:11:18.415Z,1.47
2017-10-05T10:13:45.839Z,2.43
2017-10-05T10:16:13.253Z,1.70
2017-10-05T10:18:40.803Z,1.90
2017-10-05T10:21:08.219Z,2.47
2017-10-05T10:23:35.707Z,2.03
2017-10-05T10:26:03.120Z,2.60
2017-10-05T10:28:30.543Z,1.90
2017-10-05T10:30:58.080Z,2.30
2017-10-05T10:33:25.544Z,2.27
2017-10-05T10:35:52.951Z,2.10
2017-10-05T10:38:20.449Z,2.27
2017-10-05T10:40:47.865Z,1.90
2017-10-05T10:43:15.297Z,2.70
2017-10-05T10:45:42.725Z,2.07
2017-10-05T10:48:10.291Z,1.63
2017-10-05T10:50:37.723Z,2.60
2017-10-05T10:53:05.147Z,2.53
2017-10-05T10:55:32.569Z,2.33
2017-10-05T10:58:00.025Z,2.60
2017-10-05T11:00:27.444Z,5.03
2017-10-05T11:02:54.883Z,2.60
2017-10-05T11:05:22.472Z,2.43
2017-10-05T11:07:49.923Z,2.13
2017-10-05T11:10:17.347Z,2.40
2017-10-05T11:12:44.764Z,2.60
2017-10-05T11:15:12.288Z,2.20
2017-10-05T11:17:39.704Z,2.20
2017-10-05T11:20:07.201Z,2.40
2017-10-05T11:22:34.616Z,2.50
2017-10-05T11:25:02.045Z,2.90
2017-10-05T11:27:29.455Z,2.00
2017-10-05T11:29:56.880Z,2.90
2017-10-05T11:32:25.103Z,2.67
2017-10-05T11:34:52.523Z,3.80
2017-10-05T11:37:20.009Z,3.17
2017-10-05T11:39:47.695Z,2.43
2017-10-05T11:42:15.235Z,2.93
2017-10-05T11:44:42.997Z,2.67
2017-10-05T11:47:10.453Z,1.93
2017-10-05T11:49:37.879Z,2.40
2017-10-05T11:52:05.366Z,2.80
2017-10-05T11:54:32.827Z,2.70
2017-10-05T11:57:00.281Z,2.67
2017-10-05T11:59:27.740Z,4.43
2017-10-05T12:01:55.473Z,2.90
2017-10-05T12:04:22.964Z,3.50
2017-10-05T12:06:50.403Z,2.23
2017-10-05T12:09:17.835Z,2.87
2017-10-05T12:11:45.327Z,2.67
2017-10-05T12:14:12.756Z,2.10
2017-10-05T12:16:40.234Z,2.53
2017-10-05T12:19:07.693Z,2.60
2017-10-05T12:21:35.150Z,2.37
2017-10-05T12:24:02.608Z,2.20
2017-10-05T12:26:30.038Z,3.70
2017-10-05T12:28:57.441Z,2.33
2017-10-05T12:31:24.980Z,2.60
2017-10-05T12:33:52.396Z,4.00
2017-10-05T12:36:19.819Z,2.30
2017-10-05T12:38:47.248Z,2.47
2017-10-05T12:41:14.712Z,2.57
2017-10-05T12:43:42.164Z,2.17
2017-10-05T12:46:09.612Z,2.30
2017-10-05T12:48:37.177Z,5.57
2017-10-05T12:51:04.628Z,3.07
2017-10-05T12:53:32.050Z,2.67
2017-10-05T12:55:59.479Z,2.93
2017-10-05T12:58:26.992Z,2.47
2017-10-05T13:00:54.417Z,2.80
2017-10-05T13:03:21.904Z,2.63
2017-10-05T13:05:49.326Z,2.33
2017-10-05T13:08:16.736Z,3.30
2017-10-05T13:10:44.168Z,2.33
2017-10-05T13:13:11.731Z,2.70
2017-10-05T13:15:39.191Z,2.27
2017-10-05T13:18:06.612Z,2.63
2017-10-05T13:20:34.041Z,2.30
2017-10-05T13:23:01.552Z,3.33
2017-10-05T13:25:29.316Z,2.50
2017-10-05T13:27:56.731Z,2.70
2017-10-05T13:30:24.231Z,2.53
2017-10-05T13:32:51.643Z,2.80
2017-10-05T13:35:19.071Z,2.00
2017-10-05T13:37:46.601Z,2.30
2017-10-05T13:40:14.057Z,2.23
2017-10-05T13:42:41.470Z,1.97
2017-10-05T13:45:08.969Z,2.27
2017-10-05T13:47:36.384Z,2.10
2017-10-05T13:50:03.881Z,2.03
2017-10-05T13:52:31.312Z,2.67
2017-10-05T13:54:58.736Z,2.07
2017-10-05T13:57:26.252Z,3.00
2017-10-05T13:59:53.680Z,3.37
2017-10-05T14:02:21.155Z,2.53
2017-10-05T14:04:48.627Z,2.57
2017-10-05T14:07:16.055Z,2.20
2017-10-05T14:09:43.529Z,2.60
2017-10-05T14:12:10.975Z,4.00
2017-10-05T14:14:38.396Z,2.50
2017-10-05T14:17:05.828Z,2.77
2017-10-05T14:19:33.256Z,3.00
2017-10-05T14:22:00.696Z,2.87
2017-10-05T14:24:28.195Z,2.93
2017-10-05T14:26:55.732Z,2.33
2017-10-05T14:29:23.187Z,2.27
2017-10-05T14:31:50.637Z,3.00
2017-10-05T14:34:18.061Z,2.57
2017-10-05T14:36:45.570Z,3.37
2017-10-05T14:39:13.183Z,2.43
2017-10-05T14:41:40.770Z,2.57
2017-10-05T14:44:08.187Z,2.23
2017-10-05T14:46:35.628Z,3.40
2017-10-05T14:49:03.052Z,2.37
2017-10-05T14:51:30.479Z,2.70
2017-10-05T14:53:57.960Z,3.70
2017-10-05T14:56:25.391Z,2.53
2017-10-05T14:58:52.959Z,2.57
2017-10-05T15:01:20.383Z,2.67
2017-10-05T15:03:47.840Z,2.10
2017-10-05T15:06:15.344Z,2.90
2017-10-05T15:08:42.770Z,1.87
2017-10-05T15:11:10.192Z,2.00
2017-10-05T15:13:37.702Z,2.20
2017-10-05T15:16:05.119Z,2.10
2017-10-05T15:18:32.616Z,1.70
2017-10-05T15:21:00.040Z,1.80
2017-10-05T15:23:27.472Z,1.33
2017-10-05T15:25:54.989Z,1.30
2017-10-05T15:28:22.623Z,1.10
2017-10-05T15:30:50.195Z,2.07
2017-10-05T15:33:17.629Z,1.23
2017-10-05T15:35:45.115Z,1.40
2017-10-05T15:38:12.549Z,1.10
2017-10-05T15:40:39.955Z,1.50
2017-10-05T15:43:07.383Z,1.63
2017-10-05T15:45:34.821Z,4.10
2017-10-05T15:48:02.399Z,2.20
2017-10-05T15:50:29.833Z,3.00
2017-10-05T15:52:57.256Z,2.37
2017-10-05T15:55:24.767Z,3.20
2017-10-05T15:57:52.187Z,2.33
2017-10-05T16:00:19.626Z,2.00
2017-10-05T16:02:47.048Z,6.17
2017-10-05T16:05:14.597Z,3.50
2017-10-05T16:07:42.047Z,3.53
2017-10-05T16:10:09.508Z,3.33
2017-10-05T16:12:36.956Z,3.40
2017-10-05T16:15:04.412Z,3.03
2017-10-05T16:17:31.881Z,5.63
2017-10-05T16:19:59.327Z,3.93
2017-10-05T16:22:26.742Z,2.53
2017-10-05T16:24:54.167Z,3.10
2017-10-05T16:27:21.604Z,2.50
2017-10-05T16:29:49.068Z,2.40
2017-10-05T16:32:16.614Z,3.40
2017-10-05T16:34:44.315Z,2.30
2017-10-05T16:37:11.738Z,3.13
2017-10-05T16:39:39.283Z,2.20
2017-10-05T16:42:06.703Z,3.50
2017-10-05T16:44:34.204Z,3.60
2017-10-05T16:47:01.975Z,3.17
2017-10-05T16:49:29.423Z,3.10
2017-10-05T16:51:56.957Z,3.20
2017-10-05T16:54:24.516Z,3.80
2017-10-05T16:56:52.019Z,2.60
2017-10-05T16:59:19.464Z,2.93
2017-10-05T17:01:47.011Z,2.70
2017-10-05T17:04:14.463Z,2.87
2017-10-05T17:06:41.882Z,3.60
2017-10-05T17:09:09.383Z,2.63
2017-10-05T17:11:36.815Z,2.97
2017-10-05T17:14:04.299Z,3.77
2017-10-05T17:16:31.748Z,5.67
2017-10-05T17:18:59.166Z,5.10
2017-10-05T17:21:26.656Z,7.60
2017-10-05T17:23:54.113Z,7.40
2017-10-05T17:26:21.572Z,4.40
2017-10-05T17:28:48.991Z,3.80
2017-10-05T17:31:16.481Z,4.40
2017-10-05T17:33:43.938Z,4.40
2017-10-05T17:36:11.376Z,3.83
2017-10-05T17:38:38.801Z,7.37
2017-10-05T17:41:06.244Z,3.30
2017-10-05T17:43:33.787Z,3.40
2017-10-05T17:46:01.412Z,2.80
2017-10-05T17:48:28.999Z,2.40
2017-10-05T17:50:56.448Z,3.40
2017-10-05T17:53:23.859Z,2.53
2017-10-05T17:55:51.303Z,2.10
2017-10-05T17:58:18.812Z,2.63
2017-10-05T18:00:46.256Z,2.77
2017-10-05T18:03:13.724Z,2.10
2017-10-05T18:05:41.487Z,3.80
2017-10-05T18:08:08.943Z,3.73
2017-10-05T18:10:36.404Z,4.00
2017-10-05T18:13:03.859Z,3.63
2017-10-05T18:15:31.305Z,5.10
2017-10-05T18:17:58.772Z,4.17
2017-10-05T18:20:26.528Z,3.60
2017-10-05T18:22:53.986Z,3.70
2017-10-05T18:25:21.703Z,3.53
2017-10-05T18:27:49.136Z,4.57
2017-10-05T18:30:16.561Z,3.40
2017-10-05T18:32:44.028Z,3.93
2017-10-05T18:35:11.451Z,4.50
2017-10-05T18:37:39.032Z,5.53
2017-10-05T18:40:06.500Z,8.03
2017-10-05T18:42:34.249Z,6.67
2017-10-05T18:45:01.689Z,5.00
2017-10-05T18:47:29.104Z,5.90
2017-10-05T18:49:56.551Z,8.50
2017-10-05T18:52:23.979Z,7.37
2017-10-05T18:54:51.491Z,8.87
2017-10-05T18:57:18.991Z,13.23
2017-10-05T18:59:46.439Z,29.63
2017-10-05T19:02:13.872Z,17.20
2017-10-05T19:04:41.319Z,6.30
2017-10-05T19:07:08.732Z,4.70
2017-10-05T19:09:36.277Z,3.30
2017-10-05T19:12:04.038Z,3.53
2017-10-05T19:14:31.698Z,4.33
2017-10-05T19:16:59.255Z,3.63
2017-10-05T19:19:27.029Z,3.20
2017-10-05T19:21:55.405Z,3.40
2017-10-05T19:24:22.856Z,3.30
2017-10-05T19:26:50.330Z,3.43
2017-10-05T19:29:17.769Z,3.93
2017-10-05T19:31:45.541Z,3.43
2017-10-05T19:34:12.989Z,3.43
2017-10-05T19:36:42.142Z,2.60
2017-10-05T19:39:09.625Z,3.33
2017-10-05T19:41:37.208Z,3.23
2017-10-05T19:44:04.966Z,4.63
2017-10-05T19:46:32.393Z,3.30
2017-10-05T19:48:59.826Z,3.20
2017-10-05T19:51:27.340Z,3.30
2017-10-05T19:53:55.098Z,3.80
2017-10-05T19:56:22.552Z,4.90
2017-10-05T19:58:49.980Z,3.73
2017-10-05T20:01:17.434Z,3.90
2017-10-05T20:03:44.870Z,6.73
2017-10-05T20:06:12.292Z,3.67
2017-10-05T20:08:39.845Z,4.90
2017-10-05T20:11:07.499Z,4.73
2017-10-05T20:13:52.815Z,5.13
2017-10-05T20:16:35.123Z,5.63
2017-10-05T20:19:04.583Z,5.43
2017-10-05T20:21:32.434Z,3.97
2017-10-05T20:37:24.767Z,3.63
2017-10-05T20:39:52.534Z,5.20
2017-10-05T20:42:19.988Z,3.50
2017-10-05T20:44:47.419Z,4.20
2017-10-05T20:47:14.903Z,4.33
2017-10-05T20:49:42.357Z,4.40
2017-10-05T20:52:09.776Z,5.17
2017-10-05T20:54:37.217Z,2.83
2017-10-05T20:57:04.641Z,4.20
2017-10-05T20:59:32.185Z,3.70
2017-10-05T21:01:59.646Z,3.00
2017-10-05T21:04:27.405Z,2.93
2017-10-05T21:06:55.032Z,2.73
2017-10-05T21:09:22.497Z,2.67
2017-10-05T21:11:49.976Z,2.50
2017-10-05T21:14:17.539Z,2.70
2017-10-05T21:16:45.302Z,2.90
2017-10-05T21:19:12.744Z,2.73
2017-10-05T21:21:40.168Z,2.30
2017-10-05T21:24:07.605Z,3.60
2017-10-05T21:26:35.032Z,3.47
2017-10-05T21:29:02.583Z,2.97
2017-10-05T21:31:30.041Z,3.87
2017-10-05T21:33:57.472Z,3.57
2017-10-05T21:36:24.945Z,4.10
2017-10-05T21:38:52.381Z,3.53
2017-10-05T21:41:19.865Z,3.10
2017-10-05T21:43:47.312Z,2.93
2017-10-05T21:46:14.768Z,2.90
2017-10-05T21:48:42.196Z,3.83
2017-10-05T21:51:09.629Z,3.40
2017-10-05T21:53:37.057Z,3.50
2017-10-05T21:56:04.508Z,4.20
2017-10-05T21:58:31.956Z,3.47
2017-10-05T22:00:59.448Z,4.50
2017-10-05T22:03:26.961Z,3.77
2017-10-05T22:05:54.417Z,4.23
2017-10-05T22:08:21.885Z,3.60
2017-10-05T22:10:49.328Z,4.23
2017-10-05T22:13:16.793Z,3.10
2017-10-05T22:15:44.254Z,3.53
2017-10-05T22:18:11.669Z,2.70
2017-10-05T22:20:39.097Z,2.80
2017-10-05T22:23:06.612Z,3.40
2017-10-05T22:25:34.044Z,2.83
2017-10-05T22:28:01.525Z,2.90
2017-10-05T22:30:28.989Z,3.37
2017-10-05T22:32:56.445Z,3.00
2017-10-05T22:35:23.881Z,3.13
2017-10-05T22:37:51.352Z,4.00
2017-10-05T22:40:18.784Z,2.83
2017-10-05T22:42:46.209Z,3.27
2017-10-05T22:45:13.704Z,2.80
2017-10-05T22:47:41.129Z,2.80
2017-10-05T22:50:08.633Z,3.53
2017-10-05T22:52:36.093Z,3.37
2017-10-05T22:55:03.720Z,3.30
2017-10-05T22:57:31.175Z,3.03
2017-10-05T22:59:59.344Z,3.20
2017-10-05T23:02:26.777Z,3.50
2017-10-05T23:04:54.288Z,3.43
2017-10-05T23:07:21.729Z,3.47
2017-10-05T23:09:49.152Z,3.00
2017-10-05T23:12:16.601Z,3.87
2017-10-05T23:14:44.031Z,3.10
2017-10-05T23:17:11.469Z,2.30
2017-10-05T23:19:39.057Z,2.57
2017-10-05T23:22:06.801Z,3.70
2017-10-05T23:24:34.353Z,2.97
2017-10-05T23:27:02.012Z,3.80
2017-10-05T23:29:29.648Z,2.80
2017-10-05T23:31:57.232Z,2.93
2017-10-05T23:34:24.769Z,3.10
2017-10-05T23:36:52.452Z,2.83
2017-10-05T23:39:20.084Z,3.10
2017-10-05T23:41:47.616Z,2.47
2017-10-05T23:44:15.057Z,2.40
2017-10-05T23:46:42.502Z,3.00
2017-10-05T23:49:09.948Z,3.17
2017-10-05T23:51:37.509Z,2.50
2017-10-05T23:54:05.261Z,2.30
2017-10-05T23:56:32.681Z,2.50
2017-10-05T23:59:00.121Z,2.27
